Time;durP1;ratioP1;P1;durP2;ratioP2;P2;SDS_P1;SDS_P2;PMS_P1;PMS_P2;Temp;Humidity;BMP_temperature;BMP_pressure;BME280_temperature;BME280_humidity;BME280_pressure;Samples;Min_cycle;Max_cycle;Signal;HPM_P1;HPM_P2
2023/05/06 00:01:19;;;;;;;;;;;;;;;11.22;100.00;101647.03;5022136;28;19929;-49
2023/05/06 00:03:44;;;;;;;;;;;;;;;11.20;100.00;101653.81;5025830;28;19933;-50
2023/05/06 00:06:09;;;;;;;;;;;;;;;11.16;100.00;101651.06;5024035;28;19976;-48
2023/05/06 00:08:35;;;;;;;;;;;;;;;11.11;100.00;101642.31;5024726;28;20336;-48
2023/05/06 00:11:00;;;;;;;;;;;;;;;11.07;100.00;101643.00;5025189;28;19921;-48
2023/05/06 00:13:25;;;;;;;;;;;;;;;11.02;100.00;101638.53;5025746;28;20268;-48
2023/05/06 00:15:50;;;;;;;;;;;;;;;10.99;100.00;101632.41;5023928;28;19932;-48
2023/05/06 00:18:16;;;;;;;;;;;;;;;10.96;100.00;101628.00;5024552;28;19921;-48
2023/05/06 00:20:41;;;;;;;;;;;;;;;10.94;100.00;101639.06;5020971;28;19956;-47
2023/05/06 00:23:07;;;;;;;;;;;;;;;10.89;100.00;101628.59;5022550;28;19925;-49
2023/05/06 00:25:32;;;;;;;;;;;;;;;10.87;100.00;101632.81;5022708;28;19925;-48
2023/05/06 00:27:57;;;;;;;;;;;;;;;10.84;100.00;101629.22;5026125;28;19960;-49
2023/05/06 00:30:23;;;;;;;;;;;;;;;10.80;100.00;101630.81;5025407;28;19921;-48
2023/05/06 00:32:49;;;;;;;;;;;;;;;10.77;100.00;101634.97;5024971;28;19921;-49
2023/05/06 00:35:14;;;;;;;;;;;;;;;10.73;100.00;101628.81;5026025;28;20413;-47
2023/05/06 00:37:39;;;;;;;;;;;;;;;10.71;100.00;101627.88;5019894;28;20223;-49
2023/05/06 00:40:05;;;;;;;;;;;;;;;10.67;100.00;101632.00;5016045;28;19925;-47
2023/05/06 00:42:31;;;;;;;;;;;;;;;10.65;100.00;101623.38;5024971;28;19944;-48
2023/05/06 00:44:56;;;;;;;;;;;;;;;10.62;100.00;101625.84;5025978;28;20295;-47
2023/05/06 00:47:22;;;;;;;;;;;;;;;10.59;100.00;101629.97;5018139;28;20009;-49
2023/05/06 00:49:48;;;;;;;;;;;;;;;10.55;100.00;101634.09;5025158;28;19973;-47
2023/05/06 00:52:14;;;;;;;;;;;;;;;10.52;100.00;101631.41;5024152;28;19926;-50
2023/05/06 00:54:40;;;;;;;;;;;;;;;10.48;100.00;101625.25;5024646;28;20345;-48
2023/05/06 00:57:05;;;;;;;;;;;;;;;10.47;100.00;101622.63;5023562;28;19917;-48
2023/05/06 00:59:30;;;;;;;;;;;;;;;10.46;100.00;101626.03;5025696;28;20024;-48
2023/05/06 01:01:56;;;;;;;;;;;;;;;10.43;100.00;101623.31;5025129;28;19958;-47
2023/05/06 01:04:23;;;;;;;;;;;;;;;10.40;100.00;101618.94;5038489;28;19929;-49
2023/05/06 01:07:04;;;;;;;;;;;;;;;10.38;100.00;101619.69;5022651;28;20009;-48
2023/05/06 01:09:32;;;;;;;;;;;;;;;10.35;100.00;101620.44;5024153;28;20041;-49
2023/05/06 01:12:10;;;;;;;;;;;;;;;10.34;100.00;101617.81;5021939;28;19956;-48
2023/05/06 01:14:40;;;;;;;;;;;;;;;10.32;100.00;101616.88;5025166;28;19921;-48
2023/05/06 01:17:07;;;;;;;;;;;;;;;10.30;100.00;101616.78;5015403;28;20290;-49
2023/05/06 01:19:45;;;;;;;;;;;;;;;10.29;100.00;101615.03;5024818;28;19929;-48
2023/05/06 01:22:12;;;;;;;;;;;;;;;10.27;100.00;101618.38;5025459;28;19918;-48
2023/05/06 01:24:38;;;;;;;;;;;;;;;10.24;100.00;101621.69;5021396;28;19935;-47
2023/05/06 01:27:03;;;;;;;;;;;;;;;10.21;100.00;101613.81;5024607;28;19921;-50
2023/05/06 01:29:29;;;;;;;;;;;;;;;10.18;100.00;101609.41;5023149;28;19982;-48
2023/05/06 01:31:57;;;;;;;;;;;;;;;10.17;100.00;101607.66;5022039;28;20032;-49
2023/05/06 01:34:41;;;;;;;;;;;;;;;10.16;100.00;101607.63;5019066;28;19955;-51
2023/05/06 01:37:13;;;;;;;;;;;;;;;10.12;100.00;101606.59;5023201;28;19917;-48
2023/05/06 01:39:40;;;;;;;;;;;;;;;10.10;100.00;101607.34;5023995;28;19952;-48
2023/05/06 01:42:08;;;;;;;;;;;;;;;10.08;100.00;101606.44;5024321;28;19917;-49
2023/05/06 01:44:35;;;;;;;;;;;;;;;10.06;100.00;101613.16;5023028;28;19928;-47
2023/05/06 01:47:01;;;;;;;;;;;;;;;10.04;100.00;101610.53;5024594;28;19917;-48
2023/05/06 01:49:26;;;;;;;;;;;;;;;10.02;100.00;101609.63;5021282;28;20394;-45
2023/05/06 01:51:52;;;;;;;;;;;;;;;10.00;100.00;101613.78;5024004;28;20348;-44
2023/05/06 01:54:17;;;;;;;;;;;;;;;9.98;100.00;101615.44;5022802;28;19929;-44
2023/05/06 01:56:43;;;;;;;;;;;;;;;9.97;100.00;101618.81;5023138;28;19917;-44
2023/05/06 01:59:08;;;;;;;;;;;;;;;9.94;100.00;101618.66;5024922;28;19921;-45
2023/05/06 02:01:33;;;;;;;;;;;;;;;9.91;100.00;101622.00;5021770;28;19921;-45
2023/05/06 02:03:58;;;;;;;;;;;;;;;9.87;100.00;101621.78;5024820;28;19932;-44
2023/05/06 02:06:24;;;;;;;;;;;;;;;9.85;100.00;101632.00;5023023;28;19936;-46
2023/05/06 02:08:49;;;;;;;;;;;;;;;9.84;100.00;101642.22;5024265;28;20000;-44
2023/05/06 02:11:14;;;;;;;;;;;;;;;9.81;100.00;101642.94;5024212;28;19925;-45
2023/05/06 02:13:39;;;;;;;;;;;;;;;9.80;100.00;101641.19;5023853;28;20155;-45
2023/05/06 02:16:05;;;;;;;;;;;;;;;9.77;100.00;101635.94;5023742;28;20004;-45
2023/05/06 02:18:30;;;;;;;;;;;;;;;9.75;100.00;101636.69;5024323;28;20350;-45
2023/05/06 02:20:55;;;;;;;;;;;;;;;9.72;100.00;101644.25;5021599;28;19955;-46
2023/05/06 02:23:21;;;;;;;;;;;;;;;9.68;100.00;101648.38;5023591;28;20280;-46
2023/05/06 02:25:46;;;;;;;;;;;;;;;9.67;100.00;101642.34;5021210;28;19921;-48
2023/05/06 02:28:11;;;;;;;;;;;;;;;9.63;100.00;101642.16;5020838;28;19928;-43
2023/05/06 02:30:36;;;;;;;;;;;;;;;9.62;100.00;101651.53;5023290;28;19929;-46
2023/05/06 02:33:02;;;;;;;;;;;;;;;9.62;100.00;101648.09;5024709;28;19921;-44
2023/05/06 02:35:27;;;;;;;;;;;;;;;9.58;100.00;101636.81;5020912;28;19928;-43
2023/05/06 02:37:52;;;;;;;;;;;;;;;9.59;100.00;101638.59;5023059;28;19956;-45
2023/05/06 02:40:17;;;;;;;;;;;;;;;9.56;100.00;101630.72;5023367;28;19928;-45
2023/05/06 02:42:43;;;;;;;;;;;;;;;9.57;100.00;101634.19;5023853;28;19929;-44
2023/05/06 02:45:08;;;;;;;;;;;;;;;9.54;100.00;101634.06;5023496;28;20357;-43
2023/05/06 02:47:34;;;;;;;;;;;;;;;9.53;100.00;101629.72;5020509;28;19929;-44
2023/05/06 02:49:59;;;;;;;;;;;;;;;9.51;100.00;101634.78;5022476;28;20012;-44
2023/05/06 02:52:24;;;;;;;;;;;;;;;9.47;100.00;101630.34;5020205;28;19925;-44
2023/05/06 02:54:49;;;;;;;;;;;;;;;9.44;100.00;101630.19;5026608;28;19965;-45
2023/05/06 02:57:15;;;;;;;;;;;;;;;9.43;100.00;101635.25;5022097;28;20434;-44
2023/05/06 02:59:40;;;;;;;;;;;;;;;9.40;100.00;101636.88;5021303;28;19983;-44
2023/05/06 03:02:05;;;;;;;;;;;;;;;9.40;100.00;101634.31;5020806;28;19970;-44
2023/05/06 03:04:31;;;;;;;;;;;;;;;9.39;100.00;101629.09;5016874;28;20307;-44
2023/05/06 03:06:56;;;;;;;;;;;;;;;9.37;100.00;101628.16;5023632;28;19929;-44
2023/05/06 03:09:21;;;;;;;;;;;;;;;9.36;100.00;101632.41;5029165;28;20023;-46
2023/05/06 03:11:46;;;;;;;;;;;;;;;9.32;100.00;101624.50;5023523;28;19920;-44
2023/05/06 03:14:12;;;;;;;;;;;;;;;9.32;100.00;101630.50;5018786;28;19925;-46
2023/05/06 03:16:37;;;;;;;;;;;;;;;9.30;100.00;101631.25;5022710;28;20037;-44
2023/05/06 03:19:02;;;;;;;;;;;;;;;9.26;100.00;101625.09;5026887;28;19929;-45
2023/05/06 03:21:28;;;;;;;;;;;;;;;9.25;100.00;101623.34;5026202;28;19982;-44
2023/05/06 03:23:53;;;;;;;;;;;;;;;9.26;100.00;101624.22;5027000;28;20286;-45
2023/05/06 03:26:18;;;;;;;;;;;;;;;9.25;100.00;101627.59;5025798;28;19932;-45
2023/05/06 03:28:43;;;;;;;;;;;;;;;9.23;100.00;101624.09;5026175;28;19928;-52
2023/05/06 03:31:09;;;;;;;;;;;;;;;9.20;100.00;101617.13;5026379;28;19940;-52
2023/05/06 03:33:34;;;;;;;;;;;;;;;9.20;100.00;101624.81;5023282;28;20476;-51
2023/05/06 03:35:59;;;;;;;;;;;;;;;9.19;100.00;101624.75;5025055;28;19924;-51
2023/05/06 03:38:25;;;;;;;;;;;;;;;9.17;100.00;101621.25;5025178;28;19929;-53
2023/05/06 03:40:51;;;;;;;;;;;;;;;9.14;100.00;101625.41;5023984;28;19921;-52
2023/05/06 03:43:17;;;;;;;;;;;;;;;9.13;100.00;101615.09;5026907;28;20020;-49
2023/05/06 03:45:42;;;;;;;;;;;;;;;9.09;100.00;101608.94;5021189;28;20004;-50
2023/05/06 03:48:07;;;;;;;;;;;;;;;9.07;100.00;101615.69;5023097;28;19974;-51
2023/05/06 03:50:32;;;;;;;;;;;;;;;9.05;100.00;101621.56;5021026;28;19921;-50
2023/05/06 03:52:58;;;;;;;;;;;;;;;9.02;100.00;101617.16;5014563;28;20450;-52
2023/05/06 03:55:23;;;;;;;;;;;;;;;9.03;100.00;101620.59;5024291;28;20017;-49
2023/05/06 03:57:48;;;;;;;;;;;;;;;9.02;100.00;101624.84;5025953;28;19925;-51
2023/05/06 04:00:14;;;;;;;;;;;;;;;9.01;100.00;101627.34;5026020;28;19980;-52
2023/05/06 04:02:41;;;;;;;;;;;;;;;9.01;100.00;101627.34;5021327;28;19982;-51
2023/05/06 04:05:07;;;;;;;;;;;;;;;9.01;100.00;101630.78;5025834;28;20427;-49
2023/05/06 04:07:34;;;;;;;;;;;;;;;9.00;100.00;101630.72;5022833;28;20224;-51
2023/05/06 04:09:59;;;;;;;;;;;;;;;8.97;100.00;101622.88;5025383;28;20416;-48
2023/05/06 04:12:26;;;;;;;;;;;;;;;8.96;100.00;101629.69;5026987;28;19964;-50
2023/05/06 04:14:51;;;;;;;;;;;;;;;8.95;100.00;101629.63;5026769;28;19925;-47
2023/05/06 04:17:16;;;;;;;;;;;;;;;8.95;100.00;101635.63;5027049;28;20397;-52
2023/05/06 04:19:41;;;;;;;;;;;;;;;8.95;100.00;101625.38;5026490;28;19928;-48
2023/05/06 04:22:07;;;;;;;;;;;;;;;8.97;100.00;101634.00;5026480;28;19927;-49
2023/05/06 04:24:32;;;;;;;;;;;;;;;8.99;100.00;101639.25;5023743;28;19932;-52
2023/05/06 04:26:58;;;;;;;;;;;;;;;9.01;100.00;101642.75;5025990;28;19921;-51
2023/05/06 04:29:24;;;;;;;;;;;;;;;9.05;100.00;101642.97;5024971;28;19970;-48
2023/05/06 04:31:50;;;;;;;;;;;;;;;9.11;100.00;101640.69;5024719;28;19921;-49
2023/05/06 04:34:15;;;;;;;;;;;;;;;9.19;100.00;101650.41;5024907;28;20045;-51
2023/05/06 04:36:41;;;;;;;;;;;;;;;9.24;100.00;101642.13;5023644;28;19958;-52
2023/05/06 04:39:07;;;;;;;;;;;;;;;9.29;100.00;101644.91;5026351;28;20016;-51
2023/05/06 04:41:32;;;;;;;;;;;;;;;9.35;100.00;101645.19;5026227;28;20363;-51
2023/05/06 04:43:58;;;;;;;;;;;;;;;9.43;100.00;101643.84;5025141;28;19933;-50
2023/05/06 04:46:23;;;;;;;;;;;;;;;9.51;100.00;101647.63;5024945;28;19921;-51
2023/05/06 04:48:48;;;;;;;;;;;;;;;9.60;100.00;101648.03;5022818;28;19925;-52
2023/05/06 04:51:14;;;;;;;;;;;;;;;9.72;100.00;101642.56;5023644;28;19944;-48
2023/05/06 04:53:40;;;;;;;;;;;;;;;9.89;100.00;101651.00;5024649;28;19934;-48
2023/05/06 04:56:05;;;;;;;;;;;;;;;10.09;100.00;101646.72;5024051;28;20371;-48
2023/05/06 04:58:31;;;;;;;;;;;;;;;10.29;100.00;101656.16;5021564;28;19928;-51
2023/05/06 05:00:56;;;;;;;;;;;;;;;10.51;100.00;101650.22;5024422;28;19921;-48
2023/05/06 05:03:22;;;;;;;;;;;;;;;10.88;100.00;101652.56;5021777;28;19929;-49
2023/05/06 05:05:47;;;;;;;;;;;;;;;11.22;100.00;101656.44;5024939;28;19921;-48
2023/05/06 05:08:12;;;;;;;;;;;;;;;11.41;100.00;101651.19;5025552;28;19928;-48
2023/05/06 05:10:40;;;;;;;;;;;;;;;11.43;100.00;101651.22;5023415;28;19929;-48
2023/05/06 05:13:05;;;;;;;;;;;;;;;11.42;100.00;101654.63;5024902;28;19921;-48
2023/05/06 05:15:30;;;;;;;;;;;;;;;11.35;100.00;101663.84;5025158;28;20383;-49
2023/05/06 05:17:56;;;;;;;;;;;;;;;11.32;100.00;101662.81;5025320;28;20012;-48
2023/05/06 05:20:21;;;;;;;;;;;;;;;11.25;100.00;101665.16;5023060;28;19925;-50
2023/05/06 05:22:46;;;;;;;;;;;;;;;11.19;100.00;101671.78;5023306;28;19921;-51
2023/05/06 05:25:12;;;;;;;;;;;;;;;11.14;100.00;101671.59;5022505;28;20299;-50
2023/05/06 05:27:37;;;;;;;;;;;;;;;11.12;100.00;101673.25;5023308;28;19929;-53
2023/05/06 05:30:02;;;;;;;;;;;;;;;11.12;100.00;101677.50;5024658;28;19932;-51
2023/05/06 05:32:27;;;;;;;;;;;;;;;11.13;100.00;101671.53;5012474;28;19929;-47
2023/05/06 05:34:53;;;;;;;;;;;;;;;11.18;100.00;101676.06;5016923;28;20409;-48
2023/05/06 05:37:18;;;;;;;;;;;;;;;11.21;100.00;101686.44;5024939;28;19993;-49
2023/05/06 05:39:43;;;;;;;;;;;;;;;11.18;100.00;101680.31;5023509;28;19937;-49
2023/05/06 05:42:08;;;;;;;;;;;;;;;11.14;100.00;101686.16;5022709;28;19921;-50
2023/05/06 05:44:34;;;;;;;;;;;;;;;11.11;100.00;101688.63;5024804;28;19925;-44
2023/05/06 05:47:01;;;;;;;;;;;;;;;11.11;100.00;101686.06;5021340;28;19917;-44
2023/05/06 05:49:26;;;;;;;;;;;;;;;11.14;100.00;101687.03;5022858;28;19925;-46
2023/05/06 05:51:51;;;;;;;;;;;;;;;11.19;100.00;101687.22;5024878;28;20006;-45
2023/05/06 05:54:16;;;;;;;;;;;;;;;11.29;100.00;101691.91;5024653;28;20008;-44
2023/05/06 05:56:42;;;;;;;;;;;;;;;11.42;100.00;101682.97;5024023;28;19932;-45
2023/05/06 05:59:07;;;;;;;;;;;;;;;11.60;100.00;101691.38;5022165;28;19921;-46
2023/05/06 06:01:33;;;;;;;;;;;;;;;11.72;100.00;101690.94;5022311;28;19921;-44
2023/05/06 06:03:58;;;;;;;;;;;;;;;11.84;100.00;101694.00;5024303;28;19933;-45
2023/05/06 06:06:24;;;;;;;;;;;;;;;11.95;100.00;101697.84;5023572;28;19929;-44
2023/05/06 06:08:49;;;;;;;;;;;;;;;12.05;100.00;101686.13;5023300;28;20287;-45
2023/05/06 06:11:14;;;;;;;;;;;;;;;12.15;100.00;101687.34;5018618;28;20307;-43
2023/05/06 06:13:40;;;;;;;;;;;;;;;12.17;100.00;101689.16;5020180;28;19932;-47
2023/05/06 06:16:05;;;;;;;;;;;;;;;12.20;100.00;101685.81;5024503;28;20647;-47
2023/05/06 06:18:30;;;;;;;;;;;;;;;12.24;100.00;101685.06;5023992;28;19917;-45
2023/05/06 06:20:56;;;;;;;;;;;;;;;12.30;100.00;101681.00;5022558;28;20000;-46
2023/05/06 06:23:21;;;;;;;;;;;;;;;12.39;100.00;101679.56;5023007;28;19929;-45
2023/05/06 06:25:46;;;;;;;;;;;;;;;12.49;100.00;101690.22;5019893;28;19977;-45
2023/05/06 06:28:11;;;;;;;;;;;;;;;12.56;100.00;101687.06;5024214;28;20017;-44
2023/05/06 06:30:37;;;;;;;;;;;;;;;12.64;100.00;101683.84;5011465;28;19992;-45
2023/05/06 06:33:02;;;;;;;;;;;;;;;12.84;100.00;101693.97;5023618;28;19938;-45
2023/05/06 06:35:27;;;;;;;;;;;;;;;13.18;100.00;101699.31;5021989;28;19928;-44
2023/05/06 06:37:53;;;;;;;;;;;;;;;13.45;100.00;101687.25;5020848;28;20556;-48
2023/05/06 06:40:19;;;;;;;;;;;;;;;13.66;100.00;101690.47;5041865;28;19926;-45
2023/05/06 06:42:45;;;;;;;;;;;;;;;14.00;100.00;101691.41;5023136;28;19925;-45
2023/05/06 06:45:12;;;;;;;;;;;;;;;14.37;100.00;101697.53;5019848;28;20001;-45
2023/05/06 06:47:37;;;;;;;;;;;;;;;14.68;100.00;101696.63;5019785;28;20007;-44
2023/05/06 06:50:02;;;;;;;;;;;;;;;14.87;100.00;101696.25;5020807;28;20101;-46
2023/05/06 06:52:28;;;;;;;;;;;;;;;15.01;100.00;101697.44;5022999;28;20005;-44
2023/05/06 06:54:53;;;;;;;;;;;;;;;15.38;100.00;101689.63;5022983;28;19933;-46
2023/05/06 06:57:18;;;;;;;;;;;;;;;15.76;100.00;101695.63;5020915;28;19925;-46
2023/05/06 06:59:44;;;;;;;;;;;;;;;16.05;100.00;101686.69;5022951;28;19932;-49
2023/05/06 07:02:09;;;;;;;;;;;;;;;16.27;100.00;101693.16;5023772;28;19927;-47
2023/05/06 07:04:34;;;;;;;;;;;;;;;16.32;100.00;101694.13;5022777;28;19926;-45
2023/05/06 07:06:59;;;;;;;;;;;;;;;16.51;100.00;101692.72;5020280;28;20521;-46
2023/05/06 07:09:25;;;;;;;;;;;;;;;16.60;98.46;101691.97;5022692;28;19933;-46
2023/05/06 07:11:50;;;;;;;;;;;;;;;16.73;99.97;101696.56;5020171;28;20000;-46
2023/05/06 07:14:15;;;;;;;;;;;;;;;16.97;98.67;101697.78;5023332;28;20876;-45
2023/05/06 07:16:41;;;;;;;;;;;;;;;17.08;94.18;101707.50;5023828;28;19924;-46
2023/05/06 07:19:06;;;;;;;;;;;;;;;17.05;94.32;101712.66;5022353;28;19927;-45
2023/05/06 07:21:31;;;;;;;;;;;;;;;17.07;94.90;101716.16;5023174;28;19917;-46
2023/05/06 07:23:57;;;;;;;;;;;;;;;17.05;94.89;101712.66;5022555;28;20010;-44
2023/05/06 07:26:22;;;;;;;;;;;;;;;17.16;94.61;101715.38;5022537;28;19917;-45
2023/05/06 07:28:47;;;;;;;;;;;;;;;17.32;95.12;101722.56;5023077;28;19917;-44
2023/05/06 07:31:14;;;;;;;;;;;;;;;17.40;92.26;101717.47;5020495;28;20008;-45
2023/05/06 07:33:40;;;;;;;;;;;;;;;17.44;92.64;101716.66;5022278;28;19967;-45
2023/05/06 07:36:05;;;;;;;;;;;;;;;17.42;92.92;101713.19;5018795;28;20016;-46
2023/05/06 07:38:30;;;;;;;;;;;;;;;17.46;91.48;101717.53;5036758;28;20697;-44
2023/05/06 07:40:56;;;;;;;;;;;;;;;17.49;92.35;101714.13;5021281;28;19925;-46
2023/05/06 07:43:21;;;;;;;;;;;;;;;17.57;92.11;101718.56;5020648;28;19978;-44
2023/05/06 07:45:47;;;;;;;;;;;;;;;17.46;91.22;101712.34;5023296;28;20606;-45
2023/05/06 07:48:12;;;;;;;;;;;;;;;17.46;89.64;101717.53;5017656;28;20036;-45
2023/05/06 07:50:37;;;;;;;;;;;;;;;17.48;88.49;101712.38;5020016;28;19925;-44
2023/05/06 07:53:03;;;;;;;;;;;;;;;17.48;90.88;101709.78;5021279;28;19975;-45
2023/05/06 07:55:28;;;;;;;;;;;;;;;17.62;91.70;101714.31;5022503;28;19932;-45
2023/05/06 07:57:53;;;;;;;;;;;;;;;17.79;89.76;101711.06;5022781;28;19928;-47
2023/05/06 08:00:19;;;;;;;;;;;;;;;17.87;88.23;101714.63;5021259;28;19921;-46
2023/05/06 08:02:46;;;;;;;;;;;;;;;17.94;87.73;101721.66;5021270;28;20572;-46
2023/05/06 08:05:12;;;;;;;;;;;;;;;18.10;88.66;101714.91;5022792;28;19921;-45
2023/05/06 08:07:38;;;;;;;;;;;;;;;18.29;87.92;101719.44;5025736;28;19917;-46
2023/05/06 08:10:04;;;;;;;;;;;;;;;18.36;87.83;101715.16;5022060;28;20380;-47
2023/05/06 08:12:29;;;;;;;;;;;;;;;18.39;87.05;101725.59;5020964;28;19952;-46
2023/05/06 08:14:55;;;;;;;;;;;;;;;18.46;85.74;101722.19;5025114;28;19921;-45
2023/05/06 08:17:20;;;;;;;;;;;;;;;18.54;85.91;101717.91;5025403;28;20036;-44
2023/05/06 08:19:45;;;;;;;;;;;;;;;18.56;85.89;101721.41;5025955;28;19925;-46
2023/05/06 08:22:11;;;;;;;;;;;;;;;18.74;85.54;101728.53;5025324;28;19936;-46
2023/05/06 08:24:36;;;;;;;;;;;;;;;18.98;85.68;101730.47;5023094;28;19925;-46
2023/05/06 08:27:02;;;;;;;;;;;;;;;19.20;81.49;101726.28;5025058;28;19928;-45
2023/05/06 08:29:27;;;;;;;;;;;;;;;19.40;80.38;101718.56;5023031;28;19928;-46
2023/05/06 08:31:52;;;;;;;;;;;;;;;19.34;74.15;101714.19;5021920;28;19929;-46
2023/05/06 08:34:19;;;;;;;;;;;;;;;19.09;80.22;101713.16;5021495;28;20299;-46
2023/05/06 08:36:45;;;;;;;;;;;;;;;19.01;76.81;101713.13;5024606;28;19965;-48
2023/05/06 08:39:11;;;;;;;;;;;;;;;18.80;77.90;101715.56;5022209;28;19920;-47
2023/05/06 08:41:37;;;;;;;;;;;;;;;18.66;75.79;101718.03;5022906;28;19921;-46
2023/05/06 08:44:04;;;;;;;;;;;;;;;18.46;76.48;101717.00;5024925;28;19936;-49
2023/05/06 08:46:29;;;;;;;;;;;;;;;18.31;78.55;101712.50;5019120;28;19917;-45
2023/05/06 08:48:55;;;;;;;;;;;;;;;18.17;77.31;101704.56;5025503;28;19932;-46
2023/05/06 08:51:24;;;;;;;;;;;;;;;18.07;78.03;101707.91;5020725;28;19993;-49
2023/05/06 08:53:50;;;;;;;;;;;;;;;18.08;79.66;101698.38;5024275;28;19921;-45
2023/05/06 08:56:16;;;;;;;;;;;;;;;18.19;78.28;101710.63;5022621;28;19945;-46
2023/05/06 08:58:43;;;;;;;;;;;;;;;18.13;76.90;101702.75;5025219;28;19929;-46
2023/05/06 09:01:09;;;;;;;;;;;;;;;18.18;73.85;101706.28;5021159;28;20303;-48
2023/05/06 09:03:34;;;;;;;;;;;;;;;18.24;76.78;101700.28;5024348;28;19921;-47
2023/05/06 09:05:59;;;;;;;;;;;;;;;18.32;72.72;101706.47;5023823;28;20039;-46
2023/05/06 09:08:24;;;;;;;;;;;;;;;18.39;74.97;101702.19;5023711;28;19936;-46
2023/05/06 09:10:50;;;;;;;;;;;;;;;18.41;73.31;101701.31;5025187;28;20300;-48
2023/05/06 09:13:16;;;;;;;;;;;;;;;18.48;76.29;101697.91;5024640;28;19972;-47
2023/05/06 09:15:42;;;;;;;;;;;;;;;18.65;74.81;101700.66;5023500;28;20302;-50
2023/05/06 09:18:08;;;;;;;;;;;;;;;18.75;71.50;101697.31;5024438;28;20313;-48
2023/05/06 09:20:34;;;;;;;;;;;;;;;18.73;72.18;101687.72;5023700;28;19974;-52
2023/05/06 09:23:00;;;;;;;;;;;;;;;18.76;66.97;101692.97;5021487;28;19917;-49
2023/05/06 09:25:25;;;;;;;;;;;;;;;18.82;71.24;101690.41;5023105;28;20019;-46
2023/05/06 09:28:01;;;;;;;;;;;;;;;18.85;67.83;101687.81;5021754;28;20402;-48
2023/05/06 09:30:27;;;;;;;;;;;;;;;19.02;72.47;101693.13;5022034;28;19932;-48
2023/05/06 09:32:52;;;;;;;;;;;;;;;19.21;72.05;101688.91;5022171;28;20384;-46
2023/05/06 09:35:17;;;;;;;;;;;;;;;19.39;72.01;101690.75;5024437;28;20394;-46
2023/05/06 09:37:43;;;;;;;;;;;;;;;19.51;69.75;101691.66;5020560;28;20055;-50
2023/05/06 09:40:09;;;;;;;;;;;;;;;19.64;70.65;101695.22;5023191;28;19922;-50
2023/05/06 09:42:34;;;;;;;;;;;;;;;19.76;72.27;101681.34;5022979;28;19970;-48
2023/05/06 09:45:00;;;;;;;;;;;;;;;19.90;68.95;101690.13;5024361;28;19972;-49
2023/05/06 09:47:26;;;;;;;;;;;;;;;19.95;67.00;101688.38;5022238;28;19921;-50
2023/05/06 09:49:55;;;;;;;;;;;;;;;19.93;67.99;101684.88;5023976;28;19925;-46
2023/05/06 09:52:22;;;;;;;;;;;;;;;19.99;68.24;101679.69;5021226;28;19935;-47
2023/05/06 09:54:47;;;;;;;;;;;;;;;20.14;70.46;101686.66;5021571;28;20395;-48
2023/05/06 09:57:15;;;;;;;;;;;;;;;20.32;68.00;101685.81;5024984;28;19966;-47
2023/05/06 09:59:42;;;;;;;;;;;;;;;20.46;68.32;101681.53;5022492;28;19931;-48
2023/05/06 10:02:07;;;;;;;;;;;;;;;20.41;69.65;101678.00;5024188;28;20358;-46
2023/05/06 10:04:35;;;;;;;;;;;;;;;20.33;67.68;101671.91;5023747;28;19921;-46
2023/05/06 10:07:01;;;;;;;;;;;;;;;20.46;67.05;101678.91;5024268;28;20004;-46
2023/05/06 10:09:28;;;;;;;;;;;;;;;20.52;68.92;101678.91;5019780;28;19921;-46
2023/05/06 10:11:54;;;;;;;;;;;;;;;20.59;66.40;101674.56;5021562;28;19969;-47
2023/05/06 10:14:19;;;;;;;;;;;;;;;20.63;67.60;101671.06;5024145;28;20051;-48
2023/05/06 10:16:47;;;;;;;;;;;;;;;20.49;66.02;101659.75;5023469;28;20024;-48
2023/05/06 10:19:14;;;;;;;;;;;;;;;20.48;63.85;101665.84;5023540;28;19959;-46
2023/05/06 10:21:44;;;;;;;;;;;;;;;20.52;65.69;101660.63;5019141;28;20372;-50
2023/05/06 10:24:15;;;;;;;;;;;;;;;20.59;64.02;101662.34;5023978;28;19925;-47
2023/05/06 10:26:41;;;;;;;;;;;;;;;20.43;63.88;101644.91;5022975;28;19920;-46
2023/05/06 10:29:09;;;;;;;;;;;;;;;20.28;64.68;101653.63;5021390;28;20019;-46
2023/05/06 10:31:37;;;;;;;;;;;;;;;20.21;63.95;101651.88;5022598;28;19931;-46
2023/05/06 10:34:03;;;;;;;;;;;;;;;20.32;64.25;101657.09;5020106;28;19927;-48
2023/05/06 10:36:30;;;;;;;;;;;;;;;20.46;64.26;101652.78;5021000;28;20036;-45
2023/05/06 10:38:59;;;;;;;;;;;;;;;20.64;62.92;101656.28;5022708;28;19925;-44
2023/05/06 10:41:26;;;;;;;;;;;;;;;20.83;59.99;101655.38;5019318;28;19997;-47
2023/05/06 10:43:55;;;;;;;;;;;;;;;20.94;59.96;101651.00;5024252;28;19922;-45
2023/05/06 10:46:21;;;;;;;;;;;;;;;21.04;56.42;101644.84;5021606;28;19928;-47
2023/05/06 10:49:05;;;;;;;;;;;;;;;20.89;59.41;101637.94;5023328;28;19925;-46
2023/05/06 10:51:34;;;;;;;;;;;;;;;21.00;59.43;101637.91;5023208;28;20032;-45
2023/05/06 10:54:03;;;;;;;;;;;;;;;21.06;60.29;101632.66;5020645;28;19956;-49
2023/05/06 10:56:51;;;;;;;;;;;;;;;21.23;58.06;101637.81;5019575;28;19981;-45
2023/05/06 10:59:21;;;;;;;;;;;;;;;21.14;59.26;101638.72;5019786;28;19921;-48
2023/05/06 11:01:53;;;;;;;;;;;;;;;21.09;60.21;101637.88;5020972;28;19926;-46
2023/05/06 11:04:18;;;;;;;;;;;;;;;21.29;58.94;101637.81;5017253;28;20593;-46
2023/05/06 11:06:45;;;;;;;;;;;;;;;21.51;56.18;101627.28;5023024;28;19956;-47
2023/05/06 11:09:19;;;;;;;;;;;;;;;21.62;58.46;101628.97;5022895;28;19921;-46
2023/05/06 11:11:45;;;;;;;;;;;;;;;21.65;57.08;101633.28;5023425;28;20336;-45
2023/05/06 11:14:12;;;;;;;;;;;;;;;21.73;55.94;101622.81;5023532;28;19917;-48
2023/05/06 11:16:56;;;;;;;;;;;;;;;21.66;57.02;101630.69;5019965;28;19917;-49
2023/05/06 11:19:31;;;;;;;;;;;;;;;21.59;56.33;101623.72;5022387;28;19964;-47
2023/05/06 11:21:57;;;;;;;;;;;;;;;21.71;57.40;101633.25;5022482;28;20391;-47
2023/05/06 11:24:26;;;;;;;;;;;;;;;21.87;58.44;101621.81;5021155;28;19970;-46
2023/05/06 11:26:52;;;;;;;;;;;;;;;21.92;58.75;101620.06;5019201;28;20028;-46
2023/05/06 11:29:18;;;;;;;;;;;;;;;21.98;56.43;101627.00;5019657;28;20346;-46
2023/05/06 11:31:44;;;;;;;;;;;;;;;22.07;57.41;101618.19;5021951;28;19925;-47
2023/05/06 11:34:17;;;;;;;;;;;;;;;22.08;56.39;101614.69;5018799;28;19921;-47
2023/05/06 11:37:12;;;;;;;;;;;;;;;22.09;53.81;101617.34;5022432;28;19926;-47
2023/05/06 11:39:37;;;;;;;;;;;;;;;22.07;56.54;101615.56;5015995;28;19925;-47
2023/05/06 11:42:04;;;;;;;;;;;;;;;22.17;52.55;101623.38;5024736;28;19925;-47
2023/05/06 11:44:31;;;;;;;;;;;;;;;22.13;56.32;101605.09;5023996;28;19944;-46
2023/05/06 11:46:58;;;;;;;;;;;;;;;22.28;55.87;101610.22;5022995;28;20292;-48
2023/05/06 11:49:24;;;;;;;;;;;;;;;22.55;54.27;101616.06;5026835;28;20963;-50
2023/05/06 11:51:50;;;;;;;;;;;;;;;22.65;52.49;101618.59;5024910;28;20001;-47
2023/05/06 11:54:17;;;;;;;;;;;;;;;22.75;52.98;101611.50;5021308;28;19959;-46
2023/05/06 11:56:43;;;;;;;;;;;;;;;22.86;51.17;101608.75;5021327;28;20104;-46
2023/05/06 11:59:09;;;;;;;;;;;;;;;22.76;51.30;101602.78;5026847;28;20422;-48
2023/05/06 12:01:34;;;;;;;;;;;;;;;22.78;52.31;101605.38;5025353;28;19928;-48
2023/05/06 12:04:00;;;;;;;;;;;;;;;22.84;51.07;101607.91;5026684;28;19931;-46
2023/05/06 12:06:35;;;;;;;;;;;;;;;22.96;52.55;101605.19;5023464;28;20013;-45
2023/05/06 12:09:04;;;;;;;;;;;;;;;23.07;49.76;101603.31;5025622;28;19921;-49
2023/05/06 12:11:30;;;;;;;;;;;;;;;22.91;51.70;101604.38;5026031;28;20294;-48
2023/05/06 12:13:55;;;;;;;;;;;;;;;22.86;52.24;101604.38;5026190;28;19921;-47
2023/05/06 12:16:21;;;;;;;;;;;;;;;22.79;47.86;101604.47;5025342;28;19929;-48
2023/05/06 12:18:47;;;;;;;;;;;;;;;22.60;52.34;101611.66;5026125;28;20314;-46
2023/05/06 12:21:12;;;;;;;;;;;;;;;22.62;51.65;101605.50;5026427;28;19917;-46
2023/05/06 12:23:49;;;;;;;;;;;;;;;22.65;50.39;101594.13;5010806;28;20469;-48
2023/05/06 12:26:14;;;;;;;;;;;;;;;22.77;51.81;101594.00;5020010;28;19917;-47
2023/05/06 12:28:41;;;;;;;;;;;;;;;22.98;49.50;101600.78;5025486;28;20601;-46